Time;durP1;ratioP1;P1;durP2;ratioP2;P2;SDS_P1;SDS_P2;PMS_P1;PMS_P2;Temp;Humidity;BMP_temperature;BMP_pressure;BME280_temperature;BME280_humidity;BME280_pressure;Samples;Min_cycle;Max_cycle;Signal;HPM_P1;HPM_P2
2022/11/01 00:01:55;;;;;;;28.77;22.50;;;13.90;99.90;;;;;;5053008;28;20035;-62
2022/11/01 00:04:21;;;;;;;30.25;22.88;;;13.80;99.90;;;;;;5052973;28;20025;-62
2022/11/01 00:06:47;;;;;;;30.42;23.48;;;13.90;99.90;;;;;;5053008;28;20025;-62
2022/11/01 00:09:13;;;;;;;26.55;21.55;;;13.90;99.90;;;;;;5052929;28;20040;-62
2022/11/01 00:11:40;;;;;;;33.38;25.42;;;13.80;99.90;;;;;;5052755;28;20464;-62
2022/11/01 00:14:07;;;;;;;32.72;26.98;;;13.80;99.90;;;;;;5053052;28;20018;-62
2022/11/01 00:16:33;;;;;;;33.97;25.88;;;13.70;99.90;;;;;;5052953;28;20052;-62
2022/11/01 00:18:58;;;;;;;29.65;23.17;;;13.60;99.90;;;;;;5052830;28;20068;-62
2022/11/01 00:21:24;;;;;;;24.70;19.45;;;13.60;99.90;;;;;;5052983;28;20033;-62
2022/11/01 00:23:50;;;;;;;20.67;17.77;;;13.60;99.90;;;;;;5052828;28;20032;-62
2022/11/01 00:26:21;;;;;;;21.85;18.02;;;13.60;99.90;;;;;;5052701;28;20029;-62
2022/11/01 00:28:47;;;;;;;20.52;15.80;;;13.70;99.90;;;;;;5052837;28;20013;-62
2022/11/01 00:31:15;;;;;;;16.67;13.90;;;13.70;99.90;;;;;;5052615;28;20072;-62
2022/11/01 00:33:41;;;;;;;14.80;13.27;;;13.60;99.90;;;;;;5052749;28;20103;-62
2022/11/01 00:36:07;;;;;;;15.80;12.88;;;13.70;99.90;;;;;;5052883;28;20060;-62
2022/11/01 00:38:34;;;;;;;13.75;11.73;;;13.70;99.90;;;;;;5052869;28;20021;-62
2022/11/01 00:41:01;;;;;;;12.45;11.13;;;13.70;99.90;;;;;;5052476;28;20025;-62
2022/11/01 00:43:27;;;;;;;12.02;10.23;;;13.80;99.90;;;;;;5052849;28;20067;-62
2022/11/01 00:45:52;;;;;;;14.95;11.45;;;13.80;99.90;;;;;;5052760;28;20068;-62
2022/11/01 00:48:18;;;;;;;15.63;11.98;;;13.70;99.90;;;;;;5052578;28;20036;-62
2022/11/01 00:50:44;;;;;;;14.07;10.88;;;13.70;99.90;;;;;;5052561;28;20047;-62
2022/11/01 00:53:11;;;;;;;17.08;12.63;;;13.70;99.90;;;;;;5052616;28;20056;-62
2022/11/01 00:55:37;;;;;;;17.48;12.68;;;13.60;99.90;;;;;;5052623;28;20021;-62
2022/11/01 00:58:03;;;;;;;15.93;12.93;;;13.50;99.90;;;;;;5052224;28;20116;-62
2022/11/01 01:00:29;;;;;;;19.63;14.48;;;13.60;99.90;;;;;;5052480;28;20025;-62
2022/11/01 01:02:54;;;;;;;13.70;12.15;;;13.60;99.90;;;;;;5052557;28;20032;-62
2022/11/01 01:05:20;;;;;;;15.15;11.85;;;13.50;99.90;;;;;;5052414;28;20480;-62
2022/11/01 01:07:46;;;;;;;13.65;11.48;;;13.50;99.90;;;;;;5052441;28;20076;-62
2022/11/01 01:10:12;;;;;;;15.23;12.82;;;13.50;99.90;;;;;;5055679;28;20047;-62
2022/11/01 01:12:37;;;;;;;21.25;15.30;;;13.50;99.90;;;;;;5056002;28;20029;-62
2022/11/01 01:15:04;;;;;;;21.45;16.40;;;13.50;99.90;;;;;;5056066;28;20511;-63
2022/11/01 01:17:31;;;;;;;16.83;14.00;;;13.40;99.90;;;;;;5055970;28;20021;-62
2022/11/01 01:19:56;;;;;;;14.98;12.35;;;13.30;99.90;;;;;;5055847;28;20490;-62
2022/11/01 01:22:22;;;;;;;19.23;14.70;;;13.30;99.90;;;;;;5055653;28;20127;-62
2022/11/01 01:24:47;;;;;;;19.92;15.45;;;13.30;99.90;;;;;;5055856;28;20025;-62
2022/11/01 01:27:17;;;;;;;20.23;14.38;;;13.20;99.90;;;;;;5055674;28;20025;-62
2022/11/01 01:29:44;;;;;;;24.15;19.00;;;13.20;99.90;;;;;;5055398;28;20522;-62
2022/11/01 01:32:19;;;;;;;26.02;20.65;;;13.20;99.90;;;;;;5055701;28;20029;-62
2022/11/01 01:34:45;;;;;;;21.50;16.67;;;13.10;99.90;;;;;;5055535;28;20210;-62
2022/11/01 01:37:14;;;;;;;21.70;17.02;;;13.00;99.90;;;;;;5055649;28;20036;-62
2022/11/01 01:39:40;;;;;;;19.45;15.00;;;13.00;99.90;;;;;;5055406;28;20379;-63
2022/11/01 01:42:24;;;;;;;17.08;14.35;;;13.00;99.90;;;;;;5055289;28;20025;-62
2022/11/01 01:44:53;;;;;;;20.85;16.17;;;13.10;99.90;;;;;;5055742;28;20074;-62
2022/11/01 01:47:32;;;;;;;16.02;12.95;;;13.10;99.90;;;;;;5055288;28;20475;-62
2022/11/01 01:50:11;;;;;;;17.58;14.25;;;13.10;99.90;;;;;;5055337;28;20053;-62
2022/11/01 01:53:00;;;;;;;24.67;18.10;;;13.10;99.90;;;;;;5055500;28;20024;-62
2022/11/01 01:56:05;;;;;;;29.58;21.33;;;13.10;99.90;;;;;;5055073;28;20021;-62
2022/11/01 01:59:07;;;;;;;31.52;22.75;;;13.00;99.90;;;;;;5055172;28;20021;-62
2022/11/01 02:01:35;;;;;;;29.80;22.38;;;12.80;99.90;;;;;;5055021;28;20428;-62
2022/11/01 02:04:04;;;;;;;31.50;24.55;;;12.70;99.90;;;;;;5055002;28;20036;-62
2022/11/01 02:06:32;;;;;;;30.90;23.77;;;12.60;99.90;;;;;;5054945;28;20102;-62
2022/11/01 02:09:01;;;;;;;29.73;21.70;;;12.50;99.90;;;;;;5054661;28;20128;-62
2022/11/01 02:11:27;;;;;;;29.13;22.08;;;12.50;99.90;;;;;;5054837;28;20052;-62
2022/11/01 02:13:53;;;;;;;30.90;21.90;;;12.50;99.90;;;;;;5054748;28;20052;-62
2022/11/01 02:16:27;;;;;;;29.30;21.95;;;12.40;99.90;;;;;;5054738;28;20021;-62
2022/11/01 02:19:11;;;;;;;26.25;20.50;;;12.40;99.90;;;;;;5054483;28;20472;-62
2022/11/01 02:21:54;;;;;;;22.92;19.42;;;12.30;99.90;;;;;;5054551;28;20032;-62
2022/11/01 02:24:43;;;;;;;29.65;20.70;;;12.40;99.90;;;;;;5054381;28;20053;-62
2022/11/01 02:27:12;;;;;;;24.33;18.27;;;12.50;99.90;;;;;;5054545;28;20025;-62
2022/11/01 02:29:49;;;;;;;24.10;18.05;;;12.50;99.90;;;;;;5054190;28;20060;-62
2022/11/01 02:32:36;;;;;;;24.23;19.05;;;12.50;99.90;;;;;;5054518;28;20480;-62
2022/11/01 02:35:17;;;;;;;18.60;15.63;;;12.50;99.90;;;;;;5054428;28;20380;-63
2022/11/01 02:38:01;;;;;;;17.88;14.40;;;12.50;99.90;;;;;;5054244;28;20025;-62
2022/11/01 02:40:50;;;;;;;19.90;14.82;;;12.50;99.90;;;;;;5054245;28;20021;-62
2022/11/01 02:43:24;;;;;;;14.73;12.20;;;12.50;99.90;;;;;;5054152;28;20025;-62
2022/11/01 02:45:50;;;;;;;;;;;12.60;99.90;;;;;;5054952;28;20426;-62
2022/11/01 02:48:19;;;;;;;22.13;15.65;;;12.60;99.90;;;;;;5054299;28;19908;-62
2022/11/01 02:50:49;;;;;;;14.27;12.05;;;12.50;99.90;;;;;;5054090;28;20190;-62
2022/11/01 02:53:15;;;;;;;15.60;12.55;;;12.50;99.90;;;;;;5053890;28;20484;-62
2022/11/01 02:55:40;;;;;;;16.20;12.75;;;12.40;99.90;;;;;;5054060;28;20027;-62
2022/11/01 02:58:20;;;;;;;15.05;11.18;;;12.50;99.90;;;;;;5053882;28;20036;-62
2022/11/01 03:00:46;;;;;;;15.30;11.77;;;12.50;99.90;;;;;;5053921;28;20048;-62
2022/11/01 03:03:17;;;;;;;13.07;10.52;;;12.50;99.90;;;;;;5053800;28;20021;-62
2022/11/01 03:05:59;;;;;;;14.05;10.68;;;12.40;99.90;;;;;;5053818;28;20472;-62
2022/11/01 03:08:45;;;;;;;19.00;14.40;;;12.40;99.90;;;;;;5053538;28;20183;-62
2022/11/01 03:11:19;;;;;;;14.30;11.48;;;12.40;99.90;;;;;;5053805;28;20451;-62
2022/11/01 03:14:13;;;;;;;14.85;12.20;;;12.40;99.90;;;;;;5053637;28;20108;-62
2022/11/01 03:16:50;;;;;;;13.60;10.60;;;12.40;99.90;;;;;;5053986;28;20025;-62
2022/11/01 03:19:33;;;;;;;15.25;11.68;;;12.40;99.90;;;;;;5053759;28;20017;-62
2022/11/01 03:22:10;;;;;;;12.75;10.00;;;12.30;99.90;;;;;;5053368;28;20472;-62
2022/11/01 03:24:41;;;;;;;14.25;10.20;;;12.30;99.90;;;;;;5053564;28;20064;-62
2022/11/01 03:27:23;;;;;;;14.45;10.32;;;12.30;99.90;;;;;;5053470;28;20483;-62
2022/11/01 03:29:56;;;;;;;17.27;12.68;;;12.30;99.90;;;;;;5053266;28;20041;-62
2022/11/01 03:32:29;;;;;;;11.05;9.82;;;12.30;99.90;;;;;;5051913;28;20429;-62
2022/11/01 03:34:57;;;;;;;12.50;9.63;;;12.10;99.90;;;;;;5053272;28;20025;-62
2022/11/01 03:37:23;;;;;;;11.50;9.50;;;12.10;99.90;;;;;;5053219;28;20028;-62
2022/11/01 03:39:52;;;;;;;14.43;11.30;;;12.10;99.90;;;;;;5053304;28;20025;-62
2022/11/01 03:42:20;;;;;;;13.32;10.30;;;12.10;99.90;;;;;;5053132;28;20021;-62
2022/11/01 03:44:54;;;;;;;15.38;12.68;;;12.10;99.90;;;;;;5053274;28;20502;-62
2022/11/01 03:47:20;;;;;;;15.07;11.68;;;12.00;99.90;;;;;;5053172;28;20383;-63
2022/11/01 03:49:46;;;;;;;13.23;11.18;;;11.90;99.90;;;;;;5053258;28;20092;-62
2022/11/01 03:52:12;;;;;;;16.83;12.82;;;11.80;99.90;;;;;;5052983;28;20031;-62
2022/11/01 03:54:37;;;;;;;12.85;9.63;;;11.80;99.90;;;;;;5053185;28;20537;-62
2022/11/01 03:57:03;;;;;;;12.02;9.82;;;11.80;99.90;;;;;;5053031;28;20021;-62
2022/11/01 03:59:29;;;;;;;14.32;11.02;;;11.80;99.90;;;;;;5053127;28;20127;-62
2022/11/01 04:01:54;;;;;;;12.48;9.55;;;11.90;99.90;;;;;;5052997;28;20039;-62
2022/11/01 04:04:20;;;;;;;12.10;9.82;;;12.00;99.90;;;;;;5052757;28;20025;-62
2022/11/01 04:06:46;;;;;;;11.48;9.35;;;12.00;99.90;;;;;;5053031;28;20021;-62
2022/11/01 04:09:12;;;;;;;12.57;9.65;;;12.00;99.90;;;;;;5052976;28;20025;-62
2022/11/01 04:11:37;;;;;;;14.20;10.30;;;12.00;99.90;;;;;;5052923;28;20356;-62
2022/11/01 04:22:15;;;;;;;8.75;7.60;;;11.90;99.90;;;;;;5052768;28;20118;-62
2022/11/01 04:24:41;;;;;;;10.82;8.07;;;11.80;99.90;;;;;;5052878;28;20033;-62
2022/11/01 04:27:07;;;;;;;12.05;9.40;;;11.90;99.90;;;;;;5052944;28;20017;-62
2022/11/01 04:29:32;;;;;;;13.85;9.65;;;11.90;99.90;;;;;;5052557;28;20045;-62
2022/11/01 04:31:58;;;;;;;11.02;8.48;;;11.80;99.90;;;;;;5052931;28;20087;-62
2022/11/01 04:34:41;;;;;;;9.60;7.60;;;11.80;99.90;;;;;;5052681;28;20100;-62
2022/11/01 04:37:08;;;;;;;9.25;7.78;;;11.80;99.90;;;;;;5052989;28;20057;-62
2022/11/01 04:39:33;;;;;;;10.23;8.18;;;11.80;99.90;;;;;;5052763;28;20025;-62
2022/11/01 04:41:59;;;;;;;8.15;6.72;;;11.80;99.90;;;;;;5052937;28;20108;-62
2022/11/01 04:44:25;;;;;;;11.32;8.20;;;11.80;99.90;;;;;;5056304;28;20033;-62
2022/11/01 04:46:50;;;;;;;7.80;7.00;;;11.80;99.90;;;;;;5056419;28;20027;-62
2022/11/01 04:49:16;;;;;;;10.07;7.50;;;11.80;99.90;;;;;;5056256;28;20048;-62
2022/11/01 04:51:41;;;;;;;8.68;6.63;;;11.80;99.90;;;;;;5056342;28;20029;-62
2022/11/01 04:54:07;;;;;;;10.80;7.88;;;11.80;99.90;;;;;;5056520;28;20017;-62
2022/11/01 04:56:33;;;;;;;7.32;6.53;;;11.80;99.90;;;;;;5056343;28;20491;-62
2022/11/01 04:58:59;;;;;;;8.55;7.03;;;11.70;99.90;;;;;;5056440;28;20111;-62
2022/11/01 05:01:25;;;;;;;10.30;7.57;;;11.70;99.90;;;;;;5056195;28;20075;-62
2022/11/01 05:03:51;;;;;;;10.00;8.40;;;11.70;99.90;;;;;;5056028;28;20044;-62
2022/11/01 05:06:17;;;;;;;10.32;7.95;;;11.70;99.90;;;;;;5056316;28;20410;-62
2022/11/01 05:08:42;;;;;;;9.93;7.90;;;11.60;99.90;;;;;;5055984;28;20025;-62
2022/11/01 05:11:08;;;;;;;9.88;7.28;;;11.60;99.90;;;;;;5056001;28;20029;-62
2022/11/01 05:13:34;;;;;;;15.27;10.00;;;11.60;99.90;;;;;;5056030;28;20029;-62
2022/11/01 05:16:03;;;;;;;12.50;9.63;;;11.60;99.90;;;;;;5055881;28;20494;-62
2022/11/01 05:18:29;;;;;;;10.48;8.38;;;11.60;99.90;;;;;;5055798;28;20029;-62
2022/11/01 05:20:58;;;;;;;17.15;10.85;;;11.60;99.90;;;;;;5056050;28;20036;-62
2022/11/01 05:23:23;;;;;;;18.10;12.73;;;11.60;99.90;;;;;;5055751;28;20029;-62
2022/11/01 05:25:49;;;;;;;19.90;13.82;;;11.60;99.90;;;;;;5055742;28;20104;-62
2022/11/01 05:28:15;;;;;;;28.70;19.25;;;11.60;99.90;;;;;;5056005;28;20036;-62
2022/11/01 05:30:41;;;;;;;18.80;13.15;;;11.60;99.90;;;;;;5055487;28;20045;-62
2022/11/01 05:33:09;;;;;;;20.23;14.40;;;11.60;99.90;;;;;;5055566;28;20037;-62
2022/11/01 05:35:35;;;;;;;28.77;17.08;;;11.50;99.90;;;;;;5055610;28;20025;-62
2022/11/01 05:38:02;;;;;;;22.88;15.07;;;11.60;99.90;;;;;;5055455;28;20025;-62
2022/11/01 05:40:29;;;;;;;26.05;17.83;;;11.60;99.90;;;;;;5055541;28;20024;-63
2022/11/01 05:42:54;;;;;;;32.70;22.40;;;11.60;99.90;;;;;;5055584;28;20037;-63
2022/11/01 05:45:20;;;;;;;54.38;34.63;;;11.70;99.90;;;;;;5055229;28;20021;-63
2022/11/01 05:47:46;;;;;;;46.60;30.77;;;11.70;99.90;;;;;;5055387;28;20070;-63
2022/11/01 05:50:14;;;;;;;33.65;25.02;;;11.70;99.90;;;;;;5055268;28;20029;-63
2022/11/01 05:52:40;;;;;;;34.72;23.63;;;11.70;99.90;;;;;;5054869;28;20024;-63
2022/11/01 05:55:07;;;;;;;28.70;22.17;;;11.70;99.90;;;;;;5053958;28;20025;-63
2022/11/01 05:57:33;;;;;;;34.63;25.00;;;11.80;99.90;;;;;;5055607;28;20474;-63
2022/11/01 05:59:59;;;;;;;28.67;20.88;;;11.90;99.90;;;;;;5054913;28;20437;-65
2022/11/01 06:02:25;;;;;;;22.02;17.40;;;11.90;99.90;;;;;;5054622;28;20032;-65
2022/11/01 06:04:51;;;;;;;21.58;16.67;;;12.00;99.90;;;;;;5054830;28;20032;-65
2022/11/01 06:07:17;;;;;;;21.30;15.40;;;12.00;99.90;;;;;;5054843;28;20021;-66
2022/11/01 06:09:43;;;;;;;26.38;17.63;;;12.10;99.90;;;;;;5054218;28;20051;-65
2022/11/01 06:12:08;;;;;;;20.45;14.57;;;12.10;99.90;;;;;;5054626;28;20052;-65
2022/11/01 06:14:34;;;;;;;20.65;15.50;;;12.00;99.90;;;;;;5054253;28;20021;-66
2022/11/01 06:16:59;;;;;;;15.80;12.85;;;12.10;99.90;;;;;;5053851;28;20017;-64
2022/11/01 06:19:25;;;;;;;19.17;12.82;;;12.10;99.90;;;;;;5054555;28;20119;-65
2022/11/01 06:21:51;;;;;;;20.55;13.15;;;12.20;99.90;;;;;;5054507;28;20021;-65
2022/11/01 06:24:16;;;;;;;30.73;20.58;;;12.30;99.90;;;;;;5054463;28;20029;-65
2022/11/01 06:26:42;;;;;;;36.38;26.73;;;12.40;99.90;;;;;;5052646;28;20017;-65
2022/11/01 06:29:08;;;;;;;39.67;29.35;;;12.30;99.90;;;;;;5052710;28;20017;-65
2022/11/01 06:31:34;;;;;;;51.67;37.42;;;12.20;99.90;;;;;;5052594;28;20052;-65
2022/11/01 06:33:59;;;;;;;43.50;31.23;;;12.10;99.90;;;;;;5054005;28;20482;-65
2022/11/01 06:36:25;;;;;;;39.72;30.23;;;12.10;99.90;;;;;;5053730;28;20541;-65
2022/11/01 06:38:51;;;;;;;30.85;25.38;;;12.10;99.90;;;;;;5051353;28;20029;-65
2022/11/01 06:41:16;;;;;;;26.75;22.02;;;12.20;99.90;;;;;;5051619;28;20036;-65
2022/11/01 06:43:42;;;;;;;58.75;42.40;;;12.40;99.90;;;;;;5053182;28;20112;-65
2022/11/01 06:46:08;;;;;;;117.90;87.78;;;12.50;99.90;;;;;;5053652;28;20048;-64
2022/11/01 06:48:34;;;;;;;80.65;61.80;;;12.50;99.90;;;;;;5053147;28;20461;-65
2022/11/01 06:51:03;;;;;;;79.60;63.78;;;12.60;99.90;;;;;;5052099;28;20048;-65
2022/11/01 06:53:29;;;;;;;72.32;56.70;;;12.50;99.90;;;;;;5052411;28;20013;-65
2022/11/01 06:55:58;;;;;;;67.28;54.70;;;12.50;99.90;;;;;;5052574;28;20025;-65
2022/11/01 06:58:24;;;;;;;63.38;51.60;;;12.50;99.90;;;;;;5052930;28;20036;-65
2022/11/01 07:00:50;;;;;;;73.28;60.15;;;12.50;99.90;;;;;;5048290;28;20033;-66
2022/11/01 07:03:16;;;;;;;64.38;54.15;;;12.50;99.90;;;;;;5049866;28;20060;-65
2022/11/01 07:05:41;;;;;;;57.50;49.05;;;12.70;99.90;;;;;;5050974;28;20021;-65
2022/11/01 07:08:10;;;;;;;49.67;41.45;;;14.60;99.90;;;;;;5051960;28;20535;-65
2022/11/01 07:10:38;;;;;;;47.25;38.50;;;16.80;98.00;;;;;;5052848;28;20391;-65
2022/11/01 07:13:05;;;;;;;47.65;36.67;;;18.60;80.00;;;;;;5052039;28;20028;-64
2022/11/01 07:15:31;;;;;;;39.13;34.08;;;19.90;68.50;;;;;;5049027;28;20033;-64
2022/11/01 07:18:01;;;;;;;40.78;34.05;;;21.10;63.80;;;;;;5051020;28;20024;-64
2022/11/01 07:20:28;;;;;;;37.72;31.35;;;22.10;58.60;;;;;;5051453;28;20388;-65
2022/11/01 07:23:04;;;;;;;40.35;34.40;;;22.60;56.60;;;;;;5052292;28;20379;-65
2022/11/01 07:25:31;;;;;;;36.58;31.70;;;23.00;55.50;;;;;;5052015;28;20079;-64
2022/11/01 07:27:58;;;;;;;36.95;29.67;;;23.50;54.50;;;;;;5052607;28;20121;-64
2022/11/01 07:30:24;;;;;;;33.45;26.55;;;24.10;53.30;;;;;;5052074;28;20521;-64
2022/11/01 07:32:58;;;;;;;25.98;22.80;;;24.50;52.20;;;;;;5052081;28;20028;-63
2022/11/01 07:35:24;;;;;;;22.20;19.90;;;25.00;51.30;;;;;;5051199;28;20356;-64
2022/11/01 07:37:50;;;;;;;21.67;19.20;;;25.60;51.10;;;;;;5049193;28;20032;-63
2022/11/01 07:40:16;;;;;;;21.20;17.20;;;25.80;48.60;;;;;;5051974;28;20071;-64
2022/11/01 07:42:43;;;;;;;17.60;15.75;;;25.80;48.90;;;;;;5051944;28;20032;-66
2022/11/01 07:45:11;;;;;;;19.20;15.63;;;26.10;47.80;;;;;;5053035;28;20032;-67
2022/11/01 07:47:37;;;;;;;20.77;15.80;;;26.30;48.30;;;;;;5049903;28;20029;-65
2022/11/01 07:50:04;;;;;;;17.13;15.25;;;26.30;48.30;;;;;;5050114;28;20089;-65
2022/11/01 07:52:31;;;;;;;17.73;15.90;;;26.10;49.10;;;;;;5050346;28;20383;-63
2022/11/01 07:54:56;;;;;;;19.67;16.52;;;26.20;48.80;;;;;;5051135;28;20040;-62
2022/11/01 07:57:22;;;;;;;16.92;15.13;;;26.20;48.30;;;;;;5050225;28;20021;-62
2022/11/01 07:59:48;;;;;;;16.70;14.95;;;26.20;48.10;;;;;;5049529;28;20033;-63
2022/11/01 08:02:17;;;;;;;14.85;13.23;;;26.60;48.40;;;;;;5048357;28;20041;-65
2022/11/01 08:04:43;;;;;;;18.90;17.00;;;26.50;47.60;;;;;;5047661;28;20033;-62
2022/11/01 08:07:10;;;;;;;19.63;17.73;;;26.60;47.50;;;;;;5049204;28;20414;-61
2022/11/01 08:09:35;;;;;;;18.73;16.83;;;27.10;48.30;;;;;;5049552;28;20028;-62
2022/11/01 08:12:01;;;;;;;17.40;15.77;;;27.30;47.40;;;;;;5048015;28;20356;-63
2022/11/01 08:14:27;;;;;;;16.45;14.80;;;28.00;46.80;;;;;;5046765;28;20036;-62
2022/11/01 08:16:56;;;;;;;20.98;17.80;;;27.80;46.30;;;;;;5047418;28;20029;-61
2022/11/01 08:19:22;;;;;;;25.42;21.90;;;27.10;46.80;;;;;;5051354;28;20021;-61
2022/11/01 08:21:52;;;;;;;20.88;18.77;;;26.30;47.30;;;;;;5053298;28;20029;-61
2022/11/01 08:24:17;;;;;;;23.40;20.90;;;25.00;49.20;;;;;;5055644;28;20433;-64
2022/11/01 08:26:43;;;;;;;20.70;17.90;;;24.40;50.90;;;;;;5055865;28;20053;-63
2022/11/01 08:29:09;;;;;;;23.15;20.52;;;24.50;50.50;;;;;;5055777;28;20025;-64
2022/11/01 08:31:39;;;;;;;20.73;18.63;;;25.00;50.80;;;;;;5054600;28;20229;-64
2022/11/01 08:34:05;;;;;;;21.85;19.35;;;24.40;50.90;;;;;;5055276;28;20459;-66
2022/11/01 08:36:32;;;;;;;19.40;17.35;;;23.60;51.90;;;;;;5054002;28;20051;-62
2022/11/01 08:38:59;;;;;;;18.50;16.67;;;23.10;53.20;;;;;;5055012;28;20064;-62
2022/11/01 08:41:27;;;;;;;18.60;16.70;;;22.90;53.70;;;;;;5054638;28;20025;-63
2022/11/01 08:43:52;;;;;;;16.98;15.18;;;22.80;54.10;;;;;;5054275;28;20033;-63
2022/11/01 08:46:18;;;;;;;16.45;14.57;;;22.70;54.60;;;;;;5044074;28;20436;-65
2022/11/01 08:48:46;;;;;;;14.88;13.30;;;22.80;54.30;;;;;;5041692;28;20448;-64
2022/11/01 08:51:12;;;;;;;16.13;14.38;;;22.70;54.90;;;;;;5049477;28;20024;-67
2022/11/01 08:53:38;;;;;;;16.25;13.88;;;22.80;54.70;;;;;;5048731;28;20029;-65
2022/11/01 08:56:05;;;;;;;15.15;13.40;;;22.90;55.30;;;;;;5052382;28;20032;-63
2022/11/01 08:58:31;;;;;;;14.18;12.60;;;22.90;54.40;;;;;;5051469;28;20667;-63
2022/11/01 09:00:57;;;;;;;14.63;12.73;;;22.90;54.70;;;;;;5052084;28;20037;-64
2022/11/01 09:03:23;;;;;;;12.60;11.40;;;23.10;54.50;;;;;;5052022;28;20360;-65
2022/11/01 09:05:48;;;;;;;15.77;14.13;;;23.10;55.40;;;;;;5053475;28;20464;-64
2022/11/01 09:08:14;;;;;;;13.80;12.40;;;23.10;53.70;;;;;;5048765;28;20061;-64
2022/11/01 09:10:40;;;;;;;12.55;11.23;;;23.00;54.20;;;;;;5044510;28;20721;-65
2022/11/01 09:13:05;;;;;;;12.75;10.93;;;23.20;54.70;;;;;;5051523;28;20079;-63
2022/11/01 09:15:31;;;;;;;11.05;9.48;;;23.60;52.40;;;;;;5050931;28;20155;-65
2022/11/01 09:17:57;;;;;;;9.57;8.68;;;24.00;54.20;;;;;;5041749;28;20384;-66
2022/11/01 09:20:23;;;;;;;10.65;8.68;;;24.50;51.40;;;;;;5049816;28;20487;-66
2022/11/01 09:22:54;;;;;;;9.00;8.10;;;24.90;50.40;;;;;;5051943;28;20044;-66
2022/11/01 09:25:20;;;;;;;10.52;7.88;;;25.30;49.50;;;;;;5051917;28;20029;-66
2022/11/01 09:27:45;;;;;;;10.10;7.63;;;25.70;50.50;;;;;;5052298;28;20040;-65
2022/11/01 09:30:11;;;;;;;9.00;6.97;;;25.90;48.10;;;;;;5046965;28;20045;-64
2022/11/01 09:32:37;;;;;;;6.80;5.88;;;26.30;49.60;;;;;;5041836;28;20052;-64
2022/11/01 09:35:04;;;;;;;5.70;5.13;;;26.50;47.80;;;;;;5050667;28;20025;-63
2022/11/01 09:37:32;;;;;;;5.07;4.68;;;26.60;46.80;;;;;;5047543;28;20025;-63
2022/11/01 09:39:57;;;;;;;5.95;5.35;;;26.80;46.40;;;;;;5038980;28;20025;-65
2022/11/01 09:42:34;;;;;;;7.45;5.85;;;27.10;45.50;;;;;;5036819;28;20470;-66
2022/11/01 09:45:06;;;;;;;8.38;6.38;;;27.30;48.60;;;;;;5037423;28;20029;-64
2022/11/01 09:47:35;;;;;;;7.78;6.97;;;27.50;46.60;;;;;;5049829;28;20573;-62
2022/11/01 09:50:36;;;;;;;8.98;7.30;;;27.70;46.60;;;;;;5041214;28;20036;-62
2022/11/01 09:53:07;;;;;;;7.63;6.57;;;27.80;45.60;;;;;;5050639;28;20025;-63
2022/11/01 09:55:51;;;;;;;13.15;9.13;;;28.00;46.00;;;;;;5049855;28;20117;-61
2022/11/01 09:58:50;;;;;;;9.35;8.07;;;28.20;43.30;;;;;;5039267;28;20538;-61
2022/11/01 10:01:40;;;;;;;8.80;8.00;;;28.10;44.10;;;;;;5050067;28;20065;-62
2022/11/01 10:04:36;;;;;;;9.10;7.65;;;28.30;44.80;;;;;;5033442;28;20029;-62
2022/11/01 10:07:06;;;;;;;9.10;8.13;;;28.60;45.00;;;;;;5017592;28;20033;-62
2022/11/01 10:10:13;;;;;;;9.20;7.90;;;28.90;44.20;;;;;;5043701;28;20120;-62
2022/11/01 10:13:09;;;;;;;8.10;7.40;;;29.20;43.40;;;;;;5022971;28;20503;-60
2022/11/01 10:16:10;;;;;;;8.15;7.35;;;29.40;43.50;;;;;;5025704;28;20511;-61
2022/11/01 10:18:52;;;;;;;9.75;7.97;;;29.60;44.00;;;;;;5049345;28;20075;-62
2022/11/01 10:21:22;;;;;;;11.13;7.65;;;29.70;43.00;;;;;;5052792;28;20673;-61
2022/11/01 10:23:52;;;;;;;7.07;6.40;;;29.80;41.40;;;;;;5044798;28;20021;-60
2022/11/01 10:26:29;;;;;;;9.80;7.38;;;29.90;42.40;;;;;;5045789;28;20029;-63
2022/11/01 10:28:58;;;;;;;9.82;7.15;;;30.10;41.70;;;;;;5055188;28;20024;-61
2022/11/01 10:31:30;;;;;;;10.27;7.50;;;30.10;42.40;;;;;;5044005;28;20147;-63
2022/11/01 10:34:12;;;;;;;10.38;7.20;;;30.20;40.20;;;;;;5040450;28;20029;-61
2022/11/01 10:36:42;;;;;;;7.20;6.45;;;30.30;40.90;;;;;;5052502;28;20425;-63
2022/11/01 10:39:28;;;;;;;7.20;5.88;;;30.60;42.00;;;;;;5052601;28;20076;-63
2022/11/01 10:41:54;;;;;;;6.25;5.65;;;30.60;42.70;;;;;;5052781;28;20025;-64
2022/11/01 10:44:33;;;;;;;6.32;5.30;;;30.80;40.70;;;;;;5048514;28;20036;-63
2022/11/01 10:47:05;;;;;;;5.97;5.38;;;31.10;40.50;;;;;;5048219;28;20458;-63
2022/11/01 10:49:38;;;;;;;6.13;5.60;;;31.30;39.40;;;;;;5049080;28;20025;-64
2022/11/01 10:52:08;;;;;;;;;;;31.40;41.50;;;;;;5050110;28;20033;-61
2022/11/01 10:54:37;;;;;;;4.97;4.57;;;31.50;38.80;;;;;;5049145;28;19955;-61
2022/11/01 10:57:30;;;;;;;5.03;4.63;;;31.50;38.00;;;;;;5049272;28;20021;-61
2022/11/01 11:00:00;;;;;;;4.88;4.30;;;31.70;38.80;;;;;;5048521;28;20027;-62
2022/11/01 11:02:39;;;;;;;4.50;3.75;;;31.90;38.00;;;;;;5045372;28;20382;-63
2022/11/01 11:05:05;;;;;;;4.38;4.00;;;32.10;37.10;;;;;;5047768;28;20036;-65
2022/11/01 11:07:31;;;;;;;4.43;3.65;;;32.20;37.70;;;;;;5051097;28;20029;-63
2022/11/01 11:10:00;;;;;;;5.25;4.00;;;32.30;38.10;;;;;;5051565;28;20045;-63
2022/11/01 11:12:28;;;;;;;4.35;4.00;;;32.40;37.40;;;;;;5049147;28;20067;-64
2022/11/01 11:15:02;;;;;;;5.45;3.90;;;32.40;36.80;;;;;;5051938;28;20028;-63
2022/11/01 11:17:38;;;;;;;4.95;4.13;;;32.50;36.30;;;;;;5033232;28;20096;-62
2022/11/01 11:20:09;;;;;;;6.72;4.07;;;32.50;36.70;;;;;;5031982;28;20431;-60
2022/11/01 11:22:40;;;;;;;4.25;3.72;;;32.50;39.10;;;;;;5033531;28;20021;-63
2022/11/01 11:25:13;;;;;;;8.82;6.82;;;32.60;36.30;;;;;;5036501;28;20040;-63
2022/11/01 11:27:46;;;;;;;8.88;7.63;;;32.70;36.80;;;;;;5043150;28;20030;-63
2022/11/01 11:30:35;;;;;;;9.60;7.03;;;32.50;36.70;;;;;;5042484;28;20045;-64
2022/11/01 11:33:13;;;;;;;9.05;6.32;;;32.30;36.70;;;;;;5048153;28;20028;-63
2022/11/01 11:35:42;;;;;;;9.50;6.50;;;32.30;37.50;;;;;;5037055;28;20412;-63
2022/11/01 11:38:13;;;;;;;10.90;8.05;;;32.10;37.50;;;;;;5029452;28;20032;-63
2022/11/01 11:40:41;;;;;;;11.27;9.13;;;32.00;39.40;;;;;;5048584;28;20029;-62
2022/11/01 11:43:29;;;;;;;13.13;9.13;;;31.90;38.50;;;;;;5045070;28;20440;-64
2022/11/01 11:46:23;;;;;;;10.32;7.15;;;31.70;38.40;;;;;;5042465;28;20043;-65
2022/11/01 11:48:51;;;;;;;12.35;7.78;;;31.50;36.50;;;;;;5047576;28;20028;-63
2022/11/01 11:51:20;;;;;;;8.68;7.10;;;31.50;37.70;;;;;;5047771;28;20090;-63
